createdAt,value
2018-07-30T00:02:19.769Z,22.30
2018-07-30T00:04:48.975Z,22.10
2018-07-30T00:07:18.548Z,22.10
2018-07-30T00:09:47.846Z,22.00
2018-07-30T00:12:17.278Z,21.70
2018-07-30T00:14:46.552Z,21.60
2018-07-30T00:17:15.785Z,21.50
2018-07-30T00:19:45.113Z,21.50
2018-07-30T00:22:14.407Z,21.50
2018-07-30T00:24:43.651Z,21.50
2018-07-30T00:27:12.879Z,21.60
2018-07-30T00:29:42.186Z,21.50
2018-07-30T00:32:11.448Z,21.40
2018-07-30T00:34:40.704Z,21.30
2018-07-30T00:37:09.948Z,21.50
2018-07-30T00:39:39.508Z,21.60
2018-07-30T00:42:08.751Z,21.50
2018-07-30T00:44:39.008Z,21.30
2018-07-30T00:47:08.240Z,21.20
2018-07-30T00:49:37.599Z,21.20
2018-07-30T00:52:07.932Z,21.20
2018-07-30T00:54:37.152Z,21.00
2018-07-30T00:57:06.740Z,21.10
2018-07-30T00:59:36.040Z,21.10
2018-07-30T01:02:05.269Z,21.30
2018-07-30T01:04:34.505Z,21.30
2018-07-30T01:07:03.742Z,21.20
2018-07-30T01:09:33.032Z,21.30
2018-07-30T01:12:02.326Z,21.40
2018-07-30T01:14:31.587Z,21.40
2018-07-30T01:17:01.482Z,21.30
2018-07-30T01:19:30.851Z,21.20
2018-07-30T01:22:00.120Z,21.10
2018-07-30T01:24:29.390Z,21.20
2018-07-30T01:26:58.640Z,21.10
2018-07-30T01:29:28.045Z,21.00
2018-07-30T01:31:57.284Z,20.80
2018-07-30T01:34:26.542Z,20.80
2018-07-30T01:36:55.777Z,20.80
2018-07-30T01:39:25.058Z,20.80
2018-07-30T01:41:54.286Z,20.70
2018-07-30T01:44:23.935Z,20.80
2018-07-30T01:46:53.156Z,20.80
2018-07-30T01:49:22.628Z,20.90
2018-07-30T01:51:51.990Z,20.80
2018-07-30T01:54:21.244Z,20.60
2018-07-30T01:56:50.535Z,20.70
2018-07-30T01:59:19.832Z,20.70
2018-07-30T02:01:49.061Z,20.70
2018-07-30T02:04:18.261Z,20.50
2018-07-30T02:06:47.692Z,20.50
2018-07-30T02:09:16.956Z,20.50
2018-07-30T02:11:46.256Z,20.50
2018-07-30T02:14:15.463Z,20.30
2018-07-30T02:16:44.869Z,20.30
2018-07-30T02:19:14.157Z,20.10
2018-07-30T02:21:43.464Z,19.90
2018-07-30T02:24:12.732Z,19.60
2018-07-30T02:26:42.167Z,19.70
2018-07-30T02:29:12.904Z,19.90
2018-07-30T02:31:42.125Z,20.00
2018-07-30T02:34:11.427Z,20.20
2018-07-30T02:36:40.668Z,20.30
2018-07-30T02:39:13.179Z,20.30
2018-07-30T02:41:42.681Z,20.10
2018-07-30T02:44:12.000Z,20.10
2018-07-30T02:46:41.249Z,20.00
2018-07-30T02:49:12.139Z,20.10
2018-07-30T02:51:41.420Z,20.10
2018-07-30T02:54:10.892Z,20.00
2018-07-30T02:56:40.123Z,20.00
2018-07-30T02:59:09.496Z,20.00
2018-07-30T03:01:40.020Z,19.80
2018-07-30T03:04:09.657Z,19.80
2018-07-30T03:06:39.269Z,19.70
2018-07-30T03:09:10.824Z,19.60
2018-07-30T03:11:40.936Z,19.80
2018-07-30T03:14:10.478Z,19.70
2018-07-30T03:16:40.082Z,19.70
2018-07-30T03:19:09.688Z,19.90
2018-07-30T03:21:39.468Z,19.90
2018-07-30T03:24:09.179Z,19.80
2018-07-30T03:26:39.197Z,19.40
2018-07-30T03:29:08.903Z,19.30
2018-07-30T03:31:38.440Z,19.40
2018-07-30T03:34:08.637Z,19.40
2018-07-30T03:36:38.064Z,19.50
2018-07-30T03:39:09.110Z,19.70
2018-07-30T03:41:38.790Z,19.80
2018-07-30T03:44:08.432Z,19.70
2018-07-30T03:46:38.137Z,19.50
2018-07-30T03:49:07.818Z,19.40
2018-07-30T03:51:37.351Z,19.50
2018-07-30T03:54:07.884Z,19.50
2018-07-30T03:56:38.449Z,19.50
2018-07-30T03:59:08.267Z,19.30
2018-07-30T04:01:38.413Z,19.20
2018-07-30T04:04:08.445Z,19.10
2018-07-30T04:06:38.138Z,19.20
2018-07-30T04:09:09.284Z,19.30
2018-07-30T04:11:39.491Z,19.30
2018-07-30T04:14:09.012Z,19.30
2018-07-30T04:16:42.892Z,19.20
2018-07-30T04:19:12.640Z,19.10
2018-07-30T04:21:42.243Z,19.10
2018-07-30T04:24:12.873Z,19.20
2018-07-30T04:26:44.736Z,19.10
2018-07-30T04:29:14.552Z,19.20
2018-07-30T04:31:44.079Z,19.20
2018-07-30T04:34:13.756Z,19.30
2018-07-30T04:36:43.302Z,19.20
2018-07-30T04:41:44.394Z,19.00
2018-07-30T04:44:14.031Z,18.90
2018-07-30T04:46:43.848Z,18.90
2018-07-30T04:49:13.483Z,19.00
2018-07-30T04:51:43.277Z,19.00
2018-07-30T04:54:13.537Z,19.00
2018-07-30T04:56:43.367Z,19.10
2018-07-30T04:59:13.160Z,19.20
2018-07-30T05:01:42.853Z,19.20
2018-07-30T05:04:13.130Z,19.30
2018-07-30T05:06:42.680Z,19.40
2018-07-30T05:09:12.709Z,19.30
2018-07-30T05:11:42.579Z,19.40
2018-07-30T05:14:12.120Z,19.70
2018-07-30T05:16:41.929Z,19.90
2018-07-30T05:19:11.679Z,20.10
2018-07-30T05:21:41.464Z,20.30
2018-07-30T05:24:11.345Z,20.50
2018-07-30T05:26:41.365Z,20.60
2018-07-30T05:29:11.231Z,20.70
2018-07-30T05:31:41.245Z,20.80
2018-07-30T05:34:11.048Z,20.90
2018-07-30T05:36:40.733Z,20.90
2018-07-30T05:39:11.583Z,21.00
2018-07-30T05:41:41.863Z,21.20
2018-07-30T05:44:11.814Z,21.30
2018-07-30T05:46:41.730Z,21.50
2018-07-30T05:49:11.623Z,21.70
2018-07-30T05:51:41.441Z,21.70
2018-07-30T05:54:12.041Z,21.70
2018-07-30T05:56:41.868Z,21.70
2018-07-30T05:59:12.832Z,21.90
2018-07-30T06:01:42.857Z,22.00
2018-07-30T06:04:12.525Z,22.10
2018-07-30T06:06:42.262Z,22.10
2018-07-30T06:09:12.088Z,22.30
2018-07-30T06:11:41.905Z,22.30
2018-07-30T06:14:11.500Z,22.40
2018-07-30T06:19:10.600Z,22.70
2018-07-30T06:21:40.463Z,22.70
2018-07-30T06:26:39.142Z,23.00
2018-07-30T06:29:08.613Z,22.80
2018-07-30T06:31:38.408Z,22.70
2018-07-30T06:34:07.776Z,22.80
2018-07-30T06:36:37.172Z,22.80
2018-07-30T06:39:09.356Z,23.00
2018-07-30T06:41:38.804Z,23.00
2018-07-30T06:44:08.165Z,23.30
2018-07-30T06:46:37.667Z,23.40
2018-07-30T06:49:07.621Z,23.60
2018-07-30T06:51:36.981Z,23.60
2018-07-30T06:54:06.459Z,23.60
2018-07-30T06:56:35.915Z,23.70
2018-07-30T06:59:05.300Z,23.70
2018-07-30T07:01:34.642Z,23.70
2018-07-30T07:04:04.860Z,23.40
2018-07-30T07:06:34.604Z,23.40
2018-07-30T07:09:04.412Z,23.80
2018-07-30T07:11:33.662Z,23.90
2018-07-30T07:14:03.026Z,24.10
2018-07-30T07:19:01.170Z,23.80
2018-07-30T07:21:30.484Z,23.80
2018-07-30T07:24:00.153Z,23.90
2018-07-30T07:26:29.513Z,24.10
2018-07-30T07:28:58.808Z,24.00
2018-07-30T07:31:28.351Z,24.10
2018-07-30T07:33:58.489Z,24.30
2018-07-30T07:36:28.427Z,24.30
2018-07-30T07:38:57.868Z,24.20
2018-07-30T07:41:27.208Z,24.50
2018-07-30T07:43:56.536Z,24.30
2018-07-30T07:46:25.816Z,24.30
2018-07-30T07:48:55.176Z,24.70
2018-07-30T07:51:24.595Z,24.90
2018-07-30T07:54:09.657Z,24.80
2018-07-30T07:56:39.123Z,25.10
2018-07-30T07:59:08.496Z,25.00
2018-07-30T08:01:37.766Z,25.20
2018-07-30T08:04:07.188Z,25.40
2018-07-30T08:06:37.447Z,25.60
2018-07-30T08:09:10.685Z,25.80
2018-07-30T08:11:40.352Z,25.80
2018-07-30T08:14:09.980Z,25.70
2018-07-30T08:16:39.400Z,25.60
2018-07-30T08:21:37.480Z,25.90
2018-07-30T08:24:06.946Z,26.00
2018-07-30T08:26:36.261Z,26.00
2018-07-30T08:29:05.644Z,26.10
2018-07-30T08:31:35.024Z,26.00
2018-07-30T08:34:04.468Z,26.30
2018-07-30T08:36:33.830Z,26.00
2018-07-30T08:39:04.357Z,26.40
2018-07-30T08:41:34.153Z,26.40
2018-07-30T08:44:03.457Z,26.50
2018-07-30T08:46:32.826Z,26.30
2018-07-30T08:49:02.209Z,26.40
2018-07-30T08:51:31.611Z,26.70
2018-07-30T08:54:01.040Z,26.80
2018-07-30T08:56:30.561Z,27.10
2018-07-30T08:58:59.861Z,26.80
2018-07-30T09:01:29.200Z,26.70
2018-07-30T09:03:58.488Z,26.80
2018-07-30T09:06:27.829Z,27.00
2018-07-30T09:08:57.147Z,27.10
2018-07-30T09:11:27.073Z,27.30
2018-07-30T09:13:56.412Z,27.60
2018-07-30T09:16:25.739Z,27.60
2018-07-30T09:18:56.093Z,27.90
2018-07-30T09:21:25.472Z,28.00
2018-07-30T09:23:54.825Z,28.00
2018-07-30T09:26:24.110Z,28.20
2018-07-30T09:28:53.570Z,28.40
2018-07-30T09:31:22.865Z,28.20
2018-07-30T09:33:52.196Z,28.00
2018-07-30T09:36:24.606Z,27.90
2018-07-30T09:38:54.394Z,27.90
2018-07-30T09:43:53.616Z,28.50
2018-07-30T09:46:23.029Z,28.50
2018-07-30T09:48:52.487Z,28.80
2018-07-30T09:51:21.771Z,29.00
2018-07-30T09:53:51.157Z,29.40
2018-07-30T09:56:20.555Z,29.00
2018-07-30T09:58:49.990Z,29.00
2018-07-30T10:01:24.518Z,29.20
2018-07-30T10:03:54.013Z,29.30
2018-07-30T10:06:23.296Z,29.70
2018-07-30T10:08:52.759Z,29.80
2018-07-30T10:11:22.077Z,29.90
2018-07-30T10:13:51.784Z,30.00
2018-07-30T10:16:21.437Z,30.20
2018-07-30T10:18:50.813Z,30.20
2018-07-30T10:21:20.176Z,30.30
2018-07-30T10:23:49.484Z,30.10
2018-07-30T10:26:18.798Z,30.00
2018-07-30T10:28:48.245Z,30.40
2018-07-30T10:31:17.634Z,30.50
2018-07-30T10:33:47.034Z,30.80
2018-07-30T10:36:16.300Z,30.90
2018-07-30T10:38:45.700Z,30.90
2018-07-30T10:41:15.065Z,30.90
2018-07-30T10:43:44.437Z,31.20
2018-07-30T10:46:13.824Z,31.10
2018-07-30T10:48:43.469Z,31.10
2018-07-30T10:51:12.739Z,31.40
2018-07-30T10:53:42.041Z,31.50
2018-07-30T10:56:11.432Z,31.70
2018-07-30T10:58:40.782Z,32.10
2018-07-30T11:01:10.115Z,32.10
2018-07-30T11:03:39.408Z,32.20
2018-07-30T11:06:08.756Z,32.10
2018-07-30T11:08:38.136Z,32.30
2018-07-30T11:11:07.598Z,32.40
2018-07-30T11:13:36.955Z,32.40
2018-07-30T11:16:06.525Z,32.60
2018-07-30T11:18:36.775Z,32.40
2018-07-30T11:21:06.121Z,32.70
2018-07-30T11:23:35.524Z,33.00
2018-07-30T11:26:04.886Z,33.20
2018-07-30T11:28:34.232Z,33.10
2018-07-30T11:31:03.622Z,33.00
2018-07-30T11:33:33.039Z,33.10
2018-07-30T11:36:02.389Z,32.50
2018-07-30T11:38:31.689Z,32.80
2018-07-30T11:41:01.172Z,32.80
2018-07-30T11:43:30.495Z,33.00
2018-07-30T11:45:59.811Z,33.00
2018-07-30T11:48:29.413Z,33.50
2018-07-30T11:50:59.871Z,33.90
2018-07-30T11:53:29.500Z,34.20
2018-07-30T11:55:58.843Z,34.20
2018-07-30T11:58:28.232Z,33.90
2018-07-30T12:00:57.713Z,34.00
2018-07-30T12:03:27.344Z,33.80
2018-07-30T12:08:26.020Z,34.20
2018-07-30T12:10:55.756Z,33.70
2018-07-30T12:13:25.522Z,34.40
2018-07-30T12:15:55.271Z,34.80
2018-07-30T12:18:25.139Z,35.20
2018-07-30T12:20:54.853Z,34.60
2018-07-30T12:23:24.226Z,34.70
2018-07-30T12:25:53.742Z,34.40
2018-07-30T12:28:23.103Z,34.30
2018-07-30T12:30:52.468Z,34.30
2018-07-30T12:33:22.233Z,34.20
2018-07-30T12:35:51.882Z,34.40
2018-07-30T12:38:22.347Z,34.70
2018-07-30T12:40:52.118Z,35.40
2018-07-30T12:43:21.832Z,36.10
2018-07-30T12:45:51.558Z,36.70
2018-07-30T12:48:21.194Z,35.50
2018-07-30T12:50:51.006Z,35.00
2018-07-30T12:53:20.324Z,35.10
2018-07-30T12:55:49.838Z,34.70
2018-07-30T12:58:19.200Z,34.70
2018-07-30T13:00:48.603Z,35.70
2018-07-30T13:03:18.053Z,35.50
2018-07-30T13:05:47.620Z,36.30
2018-07-30T13:08:17.460Z,37.00
2018-07-30T13:10:47.117Z,37.20
2018-07-30T13:13:16.477Z,37.30
2018-07-30T13:15:45.792Z,37.30
2018-07-30T13:18:15.060Z,37.50
2018-07-30T13:20:44.440Z,37.60
2018-07-30T13:23:13.788Z,37.70
2018-07-30T13:25:43.155Z,37.10
2018-07-30T13:28:13.820Z,36.80
2018-07-30T13:30:43.244Z,36.70
2018-07-30T13:33:12.517Z,36.00
2018-07-30T13:35:41.819Z,36.10
2018-07-30T13:38:11.167Z,37.10
2018-07-30T13:40:40.535Z,38.00
2018-07-30T13:43:10.621Z,38.10
2018-07-30T13:45:40.052Z,38.30
2018-07-30T13:48:09.384Z,38.50
2018-07-30T13:50:38.736Z,38.50
2018-07-30T13:53:08.083Z,38.30
2018-07-30T13:55:37.378Z,38.60
2018-07-30T13:58:06.751Z,38.70
2018-07-30T14:00:36.680Z,39.20
2018-07-30T14:03:06.279Z,39.30
2018-07-30T14:05:35.615Z,39.00
2018-07-30T14:08:05.010Z,39.00
2018-07-30T14:10:34.377Z,39.10
2018-07-30T14:13:03.716Z,39.80
2018-07-30T14:15:33.840Z,39.20
2018-07-30T14:18:03.156Z,39.60
2018-07-30T14:20:32.538Z,38.50
2018-07-30T14:23:01.846Z,38.70
2018-07-30T14:25:31.183Z,38.20
2018-07-30T14:28:00.492Z,38.60
2018-07-30T14:30:29.947Z,38.90
2018-07-30T14:33:00.157Z,39.20
2018-07-30T14:35:29.561Z,39.80
2018-07-30T14:37:58.862Z,40.30
2018-07-30T14:40:28.436Z,40.10
2018-07-30T14:42:58.314Z,40.20
2018-07-30T14:45:28.092Z,39.70
2018-07-30T14:47:57.907Z,39.40
2018-07-30T14:50:27.284Z,39.80
2018-07-30T14:52:57.549Z,39.70
2018-07-30T14:55:26.882Z,40.10
2018-07-30T15:00:27.072Z,40.30
2018-07-30T15:02:56.361Z,40.60
2018-07-30T15:05:26.334Z,40.40
2018-07-30T15:10:24.550Z,40.10
2018-07-30T15:12:53.860Z,39.80
2018-07-30T15:15:23.490Z,40.50
2018-07-30T15:17:53.217Z,40.60
2018-07-30T15:20:24.181Z,40.50
2018-07-30T15:22:53.848Z,39.90
2018-07-30T15:25:23.536Z,40.10
2018-07-30T15:27:53.239Z,39.90
2018-07-30T15:30:23.165Z,40.40
2018-07-30T15:32:52.498Z,40.10
2018-07-30T15:35:21.928Z,39.80
2018-07-30T15:37:52.612Z,39.30
2018-07-30T15:40:21.997Z,39.60
2018-07-30T15:42:51.364Z,40.00
2018-07-30T15:45:20.960Z,39.90
2018-07-30T15:47:50.804Z,39.50
2018-07-30T15:50:20.604Z,39.50
2018-07-30T15:52:50.378Z,39.50
2018-07-30T15:55:20.077Z,39.80
2018-07-30T15:57:49.703Z,39.60
2018-07-30T16:00:19.330Z,39.00
2018-07-30T16:02:48.739Z,39.10
2018-07-30T16:05:18.073Z,38.80
2018-07-30T16:07:48.353Z,38.40
2018-07-30T16:10:18.172Z,39.00
2018-07-30T16:12:47.548Z,39.10
2018-07-30T16:15:16.909Z,38.20
2018-07-30T16:17:46.281Z,38.00
2018-07-30T16:20:16.691Z,38.90
2018-07-30T16:22:46.104Z,39.40
2018-07-30T16:25:15.431Z,39.60
2018-07-30T16:27:44.744Z,39.70
2018-07-30T16:30:14.316Z,39.20
2018-07-30T16:32:43.706Z,37.90
2018-07-30T16:35:13.328Z,36.70
2018-07-30T16:37:42.720Z,36.20
2018-07-30T16:40:12.152Z,35.50
2018-07-30T16:45:11.650Z,34.70
2018-07-30T16:47:41.056Z,34.40
2018-07-30T16:50:10.741Z,34.20
2018-07-30T16:52:40.052Z,33.80
2018-07-30T16:55:09.443Z,33.40
2018-07-30T16:57:38.762Z,33.20
2018-07-30T17:00:10.906Z,33.00
2018-07-30T17:02:40.374Z,33.00
2018-07-30T17:05:10.108Z,32.80
2018-07-30T17:07:39.762Z,32.40
2018-07-30T17:10:09.331Z,32.20
2018-07-30T17:12:38.653Z,32.20
2018-07-30T17:17:37.663Z,31.70
2018-07-30T17:20:09.559Z,31.70
2018-07-30T17:22:39.191Z,31.50
2018-07-30T17:25:08.726Z,31.50
2018-07-30T17:27:38.034Z,31.30
2018-07-30T17:30:07.936Z,31.40
2018-07-30T17:32:37.278Z,31.20
2018-07-30T17:35:07.044Z,31.10
2018-07-30T17:37:36.692Z,31.20
2018-07-30T17:42:36.648Z,30.90
2018-07-30T17:45:07.251Z,30.90
2018-07-30T17:47:36.817Z,30.90
2018-07-30T17:50:07.001Z,30.60
2018-07-30T17:52:36.341Z,30.60
2018-07-30T17:55:05.703Z,30.60
2018-07-30T17:57:35.044Z,30.30
2018-07-30T18:00:05.453Z,30.20
2018-07-30T18:02:36.007Z,30.10
2018-07-30T18:05:05.443Z,29.90
2018-07-30T18:07:34.759Z,29.80
2018-07-30T18:10:04.428Z,29.80
2018-07-30T18:12:33.843Z,29.80
2018-07-30T18:15:03.191Z,29.70
2018-07-30T18:17:32.538Z,29.60
2018-07-30T18:20:02.145Z,29.60
2018-07-30T18:22:31.462Z,29.40
2018-07-30T18:25:00.762Z,29.50
2018-07-30T18:27:30.097Z,29.40
2018-07-30T18:29:59.901Z,29.40
2018-07-30T18:32:29.392Z,29.10
2018-07-30T18:34:59.004Z,29.00
2018-07-30T18:37:28.434Z,28.90
2018-07-30T18:39:57.895Z,28.90
2018-07-30T18:42:27.599Z,28.80
2018-07-30T18:44:57.010Z,28.80
2018-07-30T18:47:26.580Z,28.70
2018-07-30T18:49:56.037Z,28.50
2018-07-30T18:52:26.406Z,28.30
2018-07-30T18:54:55.795Z,28.20
2018-07-30T18:57:25.180Z,28.10
2018-07-30T18:59:54.769Z,28.10
2018-07-30T19:04:53.042Z,28.00
2018-07-30T19:07:22.449Z,27.90
2018-07-30T19:09:51.768Z,27.90
2018-07-30T19:12:21.171Z,27.90
2018-07-30T19:14:50.669Z,27.80
2018-07-30T19:17:20.076Z,27.70
2018-07-30T19:19:49.571Z,27.60
2018-07-30T19:22:18.981Z,27.60
2018-07-30T19:24:48.673Z,27.50
2018-07-30T19:27:18.182Z,27.40
2018-07-30T19:29:47.596Z,27.40
2018-07-30T19:34:45.698Z,27.10
2018-07-30T19:37:15.175Z,27.10
2018-07-30T19:39:47.515Z,27.10
2018-07-30T19:42:16.801Z,27.10
2018-07-30T19:44:46.192Z,27.20
2018-07-30T19:47:15.556Z,27.00
2018-07-30T19:49:44.952Z,26.90
2018-07-30T19:52:14.362Z,27.00
2018-07-30T19:54:43.727Z,27.00
2018-07-30T19:57:13.457Z,26.50
2018-07-30T19:59:42.904Z,26.60
2018-07-30T20:04:41.072Z,26.70
2018-07-30T20:07:10.422Z,26.70
2018-07-30T20:09:39.846Z,26.80
2018-07-30T20:12:09.345Z,26.70
2018-07-30T20:14:38.625Z,26.70
2018-07-30T20:17:07.925Z,26.60
2018-07-30T20:19:37.363Z,26.20
2018-07-30T20:22:06.734Z,26.10
2018-07-30T20:24:36.059Z,26.10
2018-07-30T20:27:05.532Z,26.20
2018-07-30T20:29:35.671Z,26.10
2018-07-30T20:32:05.299Z,26.00
2018-07-30T20:34:34.800Z,25.80
2018-07-30T20:37:04.341Z,25.60
2018-07-30T20:39:33.921Z,25.50
2018-07-30T20:42:03.366Z,25.50
2018-07-30T20:44:32.636Z,25.40
2018-07-30T20:47:01.880Z,25.20
2018-07-30T20:49:31.204Z,25.10
2018-07-30T20:52:00.436Z,25.00
2018-07-30T20:54:29.675Z,24.90
2018-07-30T20:56:58.904Z,24.90
2018-07-30T20:59:28.124Z,24.90
2018-07-30T21:01:58.395Z,24.70
2018-07-30T21:04:27.659Z,24.70
2018-07-30T21:06:56.923Z,24.70
2018-07-30T21:09:26.248Z,24.60
2018-07-30T21:11:55.495Z,24.50
2018-07-30T21:14:24.753Z,24.30
2018-07-30T21:16:54.029Z,24.30
2018-07-30T21:19:23.300Z,24.50
2018-07-30T21:21:52.582Z,24.40
2018-07-30T21:24:21.819Z,24.30
2018-07-30T21:26:51.092Z,24.20
2018-07-30T21:29:20.397Z,24.10
2018-07-30T21:31:49.614Z,24.10
2018-07-30T21:34:19.123Z,24.10
2018-07-30T21:36:48.400Z,24.10
2018-07-30T21:39:18.792Z,24.10
2018-07-30T21:41:48.052Z,24.10
2018-07-30T21:44:17.319Z,24.10
2018-07-30T21:46:46.552Z,24.10
2018-07-30T21:49:15.880Z,24.10
2018-07-30T21:51:45.152Z,24.10
2018-07-30T21:54:14.350Z,24.10
2018-07-30T21:56:43.654Z,24.20
2018-07-30T21:59:12.920Z,24.10
2018-07-30T22:01:42.176Z,24.10
2018-07-30T22:04:11.444Z,24.20
2018-07-30T22:06:40.774Z,24.20
2018-07-30T22:09:10.875Z,24.20
2018-07-30T22:11:40.109Z,24.00
2018-07-30T22:14:09.403Z,23.80
2018-07-30T22:16:38.716Z,23.70
2018-07-30T22:19:08.073Z,23.70
2018-07-30T22:21:37.296Z,23.40
2018-07-30T22:24:06.877Z,23.20
2018-07-30T22:26:36.155Z,23.20
2018-07-30T22:29:05.484Z,23.20
2018-07-30T22:31:34.706Z,23.30
2018-07-30T22:34:03.929Z,23.50
2018-07-30T22:36:33.168Z,23.60
2018-07-30T22:39:03.015Z,23.60
2018-07-30T22:41:32.251Z,23.50
2018-07-30T22:44:01.484Z,23.50
2018-07-30T22:46:30.731Z,23.60
2018-07-30T22:49:00.085Z,23.60
2018-07-30T22:51:29.357Z,23.80
2018-07-30T22:53:58.657Z,23.90
2018-07-30T22:56:27.915Z,24.00
2018-07-30T22:58:57.280Z,24.10
2018-07-30T23:01:26.525Z,24.10
2018-07-30T23:06:24.574Z,24.20
2018-07-30T23:08:53.840Z,24.40
2018-07-30T23:11:23.579Z,24.30
2018-07-30T23:13:52.852Z,24.40
2018-07-30T23:16:22.174Z,24.40
2018-07-30T23:18:51.508Z,24.60
2018-07-30T23:21:20.778Z,24.50
2018-07-30T23:23:49.984Z,24.30
2018-07-30T23:26:19.209Z,24.30
2018-07-30T23:28:48.471Z,24.10
2018-07-30T23:31:17.681Z,24.00
2018-07-30T23:33:46.974Z,23.90
2018-07-30T23:36:16.225Z,23.80
2018-07-30T23:38:47.492Z,23.80
2018-07-30T23:41:16.752Z,23.70
2018-07-30T23:43:46.331Z,23.70
2018-07-30T23:46:15.557Z,23.60
2018-07-30T23:48:44.796Z,23.50
2018-07-30T23:51:14.403Z,23.50
2018-07-30T23:53:43.668Z,23.40
2018-07-30T23:56:12.904Z,23.40
2018-07-30T23:58:42.160Z,23.40
